Elam, Louisiana
Current Conditions -  °F | °C
As of 2:35 PM on Monday 22 Dec 2014 (Local Time) from KHEZ Reporting Station
Overcast Overcast  
Wind Chill: 70°   Ceiling: 2200
Heat Index: 70°   Visibility: 10mi
Dew Point: 63°   Wind: 16mph
Humidity: 78%   Direction: 180°S
Pressure: 29.65"   Gusts: 21mph
Location:  31.9833°N, 91.6991°W
Report Text: KHEZ 222035Z AUTO 18014G18KT 10SM SCT017 BKN022 OVC034 21/17 A2965 RMK AO1
Loading
Personal Weather Stations






























Interactive Weather Map New forecast layout! Learn more

10-Day Weather Forecast

Advertisements
Track Severe Weather on mobile